createdAt,value
2023-10-29T00:00:34.553Z,10.90
2023-10-29T00:03:02.175Z,10.90
2023-10-29T00:05:29.548Z,10.90
2023-10-29T00:07:56.898Z,10.80
2023-10-29T00:10:24.336Z,10.80
2023-10-29T00:12:51.924Z,10.80
2023-10-29T00:15:19.617Z,10.70
2023-10-29T00:17:47.428Z,10.70
2023-10-29T00:20:14.844Z,10.70
2023-10-29T00:22:42.345Z,10.70
2023-10-29T00:25:09.859Z,10.70
2023-10-29T00:27:37.144Z,10.70
2023-10-29T00:30:05.051Z,10.70
2023-10-29T00:32:32.823Z,10.70
2023-10-29T00:35:00.615Z,10.80
2023-10-29T00:37:28.261Z,10.80
2023-10-29T00:39:55.796Z,10.80
2023-10-29T00:42:24.856Z,10.80
2023-10-29T00:44:53.028Z,10.80
2023-10-29T00:47:20.650Z,10.70
2023-10-29T00:49:49.668Z,10.70
2023-10-29T00:52:18.222Z,10.60
2023-10-29T00:54:45.737Z,10.50
2023-10-29T00:57:13.582Z,10.40
2023-10-29T00:59:41.048Z,10.40
2023-10-29T01:02:08.546Z,10.30
2023-10-29T01:04:37.661Z,10.30
2023-10-29T01:07:05.464Z,10.20
2023-10-29T01:09:33.830Z,10.20
2023-10-29T01:12:01.148Z,10.20
2023-10-29T01:14:28.651Z,10.20
2023-10-29T01:16:56.033Z,10.20
2023-10-29T01:19:23.392Z,10.10
2023-10-29T01:21:50.775Z,10.10
2023-10-29T01:24:18.168Z,10.00
2023-10-29T01:26:46.021Z,10.00
2023-10-29T01:29:13.544Z,10.00
2023-10-29T01:31:40.879Z,9.90
2023-10-29T01:34:08.257Z,10.00
2023-10-29T01:36:35.550Z,10.00
2023-10-29T01:39:03.008Z,10.10
2023-10-29T01:41:30.457Z,10.20
2023-10-29T01:43:57.792Z,10.20
2023-10-29T01:46:25.157Z,10.30
2023-10-29T01:48:52.536Z,10.50
2023-10-29T01:51:19.884Z,10.60
2023-10-29T01:53:47.204Z,10.70
2023-10-29T01:56:14.505Z,10.80
2023-10-29T01:58:41.885Z,10.90
2023-10-29T02:01:13.112Z,10.90
2023-10-29T02:03:40.774Z,10.90
2023-10-29T02:06:19.046Z,11.00
2023-10-29T02:08:46.976Z,11.00
2023-10-29T02:11:15.798Z,11.00
2023-10-29T02:13:45.013Z,11.10
2023-10-29T02:16:14.191Z,11.10
2023-10-29T02:18:41.855Z,11.10
2023-10-29T02:21:09.305Z,11.10
2023-10-29T02:23:36.873Z,11.10
2023-10-29T02:26:04.546Z,11.00
2023-10-29T02:28:31.861Z,10.90
2023-10-29T02:30:59.363Z,10.80
2023-10-29T02:33:26.813Z,10.70
2023-10-29T02:35:54.500Z,10.60
2023-10-29T02:38:21.977Z,10.60
2023-10-29T02:40:49.388Z,10.60
2023-10-29T02:43:17.194Z,10.60
2023-10-29T02:45:44.997Z,10.70
2023-10-29T02:48:12.837Z,10.70
2023-10-29T02:50:41.227Z,10.80
2023-10-29T02:53:08.711Z,10.80
2023-10-29T02:55:36.035Z,10.90
2023-10-29T02:58:03.466Z,11.00
2023-10-29T03:00:31.149Z,11.00
2023-10-29T03:02:58.900Z,11.10
2023-10-29T03:05:26.656Z,11.10
2023-10-29T03:07:54.484Z,11.10
2023-10-29T03:10:21.836Z,11.10
2023-10-29T03:12:49.617Z,11.10
2023-10-29T03:15:17.139Z,11.10
2023-10-29T03:17:45.017Z,11.10
2023-10-29T03:20:12.907Z,11.10
2023-10-29T03:22:40.552Z,11.10
2023-10-29T03:25:09.586Z,11.20
2023-10-29T03:27:37.324Z,11.20
2023-10-29T03:30:05.969Z,11.30
2023-10-29T03:32:33.341Z,11.30
2023-10-29T03:35:00.752Z,11.30
2023-10-29T03:37:28.071Z,11.30
2023-10-29T03:39:55.404Z,11.30
2023-10-29T03:42:22.798Z,11.30
2023-10-29T03:44:50.302Z,11.20
2023-10-29T03:47:18.001Z,11.20
2023-10-29T03:49:45.434Z,11.30
2023-10-29T03:52:12.725Z,11.20
2023-10-29T03:54:40.223Z,11.20
2023-10-29T03:57:08.730Z,11.20
2023-10-29T03:59:36.142Z,11.10
2023-10-29T04:02:05.301Z,11.10
2023-10-29T04:04:34.025Z,11.10
2023-10-29T04:07:01.618Z,11.10
2023-10-29T04:09:29.444Z,11.20
2023-10-29T04:11:57.409Z,11.20
2023-10-29T04:14:24.850Z,11.20
2023-10-29T04:16:52.223Z,11.20
2023-10-29T04:19:19.931Z,11.20
2023-10-29T04:21:47.504Z,11.20
2023-10-29T04:24:15.208Z,11.20
2023-10-29T04:26:42.752Z,11.30
2023-10-29T04:29:10.521Z,11.30
2023-10-29T04:31:37.930Z,11.30
2023-10-29T04:34:05.661Z,11.30
2023-10-29T04:36:33.694Z,11.40
2023-10-29T04:39:01.203Z,11.40
2023-10-29T04:41:28.619Z,11.40
2023-10-29T04:43:55.899Z,11.40
2023-10-29T04:46:23.468Z,11.30
2023-10-29T04:48:50.992Z,11.20
2023-10-29T04:51:18.520Z,11.20
2023-10-29T04:53:46.330Z,11.20
2023-10-29T04:56:13.679Z,11.20
2023-10-29T04:58:41.271Z,11.10
2023-10-29T05:01:09.244Z,11.10
2023-10-29T05:03:36.695Z,11.10
2023-10-29T05:06:05.519Z,11.20
2023-10-29T05:08:32.889Z,11.20
2023-10-29T05:11:00.207Z,11.20
2023-10-29T05:13:27.643Z,11.20
2023-10-29T05:15:55.027Z,11.20
2023-10-29T05:18:22.397Z,11.20
2023-10-29T05:20:49.773Z,11.30
2023-10-29T05:23:17.284Z,11.30
2023-10-29T05:25:45.583Z,11.30
2023-10-29T05:28:12.916Z,11.30
2023-10-29T05:30:40.689Z,11.30
2023-10-29T05:33:08.212Z,11.30
2023-10-29T05:35:35.645Z,11.30
2023-10-29T05:38:02.957Z,11.30
2023-10-29T05:40:30.355Z,11.30
2023-10-29T05:42:58.066Z,11.30
2023-10-29T05:45:25.584Z,11.40
2023-10-29T05:47:53.369Z,11.40
2023-10-29T05:50:20.909Z,11.40
2023-10-29T05:52:49.902Z,11.50
2023-10-29T05:55:20.301Z,11.50
2023-10-29T05:57:47.837Z,11.50
2023-10-29T06:00:16.382Z,11.50
2023-10-29T06:02:43.940Z,11.60
2023-10-29T06:05:11.541Z,11.60
2023-10-29T06:07:44.317Z,11.70
2023-10-29T06:10:14.376Z,11.80
2023-10-29T06:12:42.786Z,11.80
2023-10-29T06:15:11.961Z,11.90
2023-10-29T06:17:40.155Z,11.90
2023-10-29T06:20:12.801Z,11.90
2023-10-29T06:22:40.350Z,11.90
2023-10-29T06:25:09.747Z,11.90
2023-10-29T06:27:37.445Z,11.90
2023-10-29T06:30:05.531Z,11.90
2023-10-29T06:32:33.091Z,11.90
2023-10-29T06:35:00.681Z,11.80
2023-10-29T06:37:28.162Z,11.80
2023-10-29T06:39:55.441Z,11.80
2023-10-29T06:42:23.033Z,11.90
2023-10-29T06:44:50.653Z,11.90
2023-10-29T06:47:18.297Z,12.00
2023-10-29T06:49:45.713Z,12.10
2023-10-29T06:52:13.083Z,12.00
2023-10-29T06:54:41.204Z,12.00
2023-10-29T06:57:09.782Z,12.00
2023-10-29T06:59:37.259Z,12.00
2023-10-29T07:02:04.889Z,11.90
2023-10-29T07:04:33.414Z,11.90
2023-10-29T07:07:00.922Z,11.90
2023-10-29T07:09:28.976Z,11.90
2023-10-29T07:11:56.995Z,11.90
2023-10-29T07:14:24.536Z,12.00
2023-10-29T07:16:52.181Z,12.10
2023-10-29T07:19:19.668Z,12.20
2023-10-29T07:21:47.316Z,12.20
2023-10-29T07:24:14.801Z,12.20
2023-10-29T07:26:42.397Z,12.20
2023-10-29T07:29:09.962Z,12.30
2023-10-29T07:31:37.306Z,12.30
2023-10-29T07:34:04.644Z,12.40
2023-10-29T07:36:32.192Z,12.50
2023-10-29T07:38:59.631Z,12.60
2023-10-29T07:41:27.205Z,12.60
2023-10-29T07:43:54.657Z,12.70
2023-10-29T07:46:21.985Z,12.80
2023-10-29T07:48:49.461Z,12.90
2023-10-29T07:51:16.839Z,12.90
2023-10-29T07:53:44.380Z,12.90
2023-10-29T07:56:14.366Z,12.90
2023-10-29T07:58:42.292Z,12.80
2023-10-29T08:01:16.719Z,12.80
2023-10-29T08:03:46.061Z,12.90
2023-10-29T08:06:14.524Z,12.90
2023-10-29T08:08:42.306Z,13.00
2023-10-29T08:11:23.087Z,13.10
2023-10-29T08:13:52.137Z,13.20
2023-10-29T08:16:20.419Z,13.30
2023-10-29T08:18:48.074Z,13.40
2023-10-29T08:21:16.461Z,13.50
2023-10-29T08:23:44.120Z,13.50
2023-10-29T08:26:12.861Z,13.50
2023-10-29T08:28:40.352Z,13.50
2023-10-29T08:31:09.528Z,13.50
2023-10-29T08:33:37.210Z,13.50
2023-10-29T08:36:05.270Z,13.50
2023-10-29T08:38:32.865Z,13.50
2023-10-29T08:41:00.405Z,13.70
2023-10-29T08:43:29.697Z,13.80
2023-10-29T08:45:59.226Z,13.80
2023-10-29T08:48:26.699Z,13.90
2023-10-29T08:50:54.109Z,13.90
2023-10-29T08:53:21.431Z,14.00
2023-10-29T08:55:48.836Z,14.10
2023-10-29T08:58:16.351Z,14.30
2023-10-29T09:00:47.003Z,14.40
2023-10-29T09:03:19.692Z,14.50
2023-10-29T09:05:47.718Z,14.70
2023-10-29T09:08:15.190Z,14.70
2023-10-29T09:10:44.508Z,14.70
2023-10-29T09:13:12.516Z,14.70
2023-10-29T09:15:40.139Z,14.70
2023-10-29T09:18:09.645Z,14.80
2023-10-29T09:20:39.796Z,14.90
2023-10-29T09:23:10.358Z,14.90
2023-10-29T09:25:37.908Z,15.00
2023-10-29T09:28:07.038Z,14.90
2023-10-29T09:30:34.438Z,14.90
2023-10-29T09:33:02.997Z,15.00
2023-10-29T09:35:30.889Z,15.10
2023-10-29T09:37:58.198Z,15.20
2023-10-29T09:40:26.010Z,15.40
2023-10-29T09:42:55.332Z,15.40
2023-10-29T09:45:28.074Z,15.50
2023-10-29T09:47:56.324Z,15.50
2023-10-29T09:50:24.811Z,15.50
2023-10-29T09:52:56.704Z,15.50
2023-10-29T09:55:24.219Z,15.60
2023-10-29T09:57:51.826Z,15.60
2023-10-29T10:00:19.909Z,15.70
2023-10-29T10:02:58.069Z,15.90
2023-10-29T10:05:29.282Z,16.00
2023-10-29T10:07:56.824Z,16.10
2023-10-29T10:10:44.883Z,16.40
2023-10-29T10:13:13.468Z,16.60
2023-10-29T10:15:41.454Z,16.70
2023-10-29T10:18:09.307Z,16.70
2023-10-29T10:20:37.615Z,16.70
2023-10-29T10:23:07.353Z,16.80
2023-10-29T10:25:36.541Z,17.00
2023-10-29T10:28:05.017Z,17.20
2023-10-29T10:30:38.805Z,17.30
2023-10-29T10:33:10.642Z,17.30
2023-10-29T10:35:48.177Z,17.30
2023-10-29T10:38:16.608Z,17.20
2023-10-29T10:40:45.811Z,17.20
2023-10-29T10:43:20.148Z,17.30
2023-10-29T10:45:54.066Z,17.20
2023-10-29T10:48:21.877Z,17.30
2023-10-29T10:50:52.320Z,17.40
2023-10-29T10:53:20.787Z,17.50
2023-10-29T10:56:02.457Z,17.50
2023-10-29T10:58:32.145Z,17.40
2023-10-29T11:01:00.723Z,17.30
2023-10-29T11:03:34.361Z,17.30
2023-10-29T11:06:02.556Z,17.30
2023-10-29T11:08:30.276Z,17.30
2023-10-29T11:10:58.940Z,17.20
2023-10-29T11:13:27.638Z,17.20
2023-10-29T11:15:56.296Z,17.10
2023-10-29T11:18:33.822Z,17.00
2023-10-29T11:21:04.554Z,17.00
2023-10-29T11:23:33.118Z,17.10
2023-10-29T11:26:24.162Z,17.10
2023-10-29T11:28:56.028Z,17.10
2023-10-29T11:31:26.633Z,17.10
2023-10-29T11:33:57.245Z,17.10
2023-10-29T11:36:38.886Z,17.10
2023-10-29T11:39:19.467Z,17.10
2023-10-29T11:41:48.013Z,17.20
2023-10-29T11:44:30.536Z,17.30
2023-10-29T11:47:03.161Z,17.30
2023-10-29T11:49:52.089Z,17.30
2023-10-29T11:52:19.836Z,17.40
2023-10-29T11:54:47.499Z,17.40
2023-10-29T11:57:16.199Z,17.50
2023-10-29T11:59:56.701Z,17.40
2023-10-29T12:02:25.908Z,17.40
2023-10-29T12:04:53.433Z,17.30
2023-10-29T12:07:26.453Z,17.30
2023-10-29T12:10:07.220Z,17.30
2023-10-29T12:12:35.484Z,17.30
2023-10-29T12:15:03.996Z,17.30
2023-10-29T12:17:31.659Z,17.40
2023-10-29T12:19:59.191Z,17.40
2023-10-29T12:22:29.214Z,17.40
2023-10-29T12:25:02.586Z,17.50
2023-10-29T12:27:31.696Z,17.50
2023-10-29T12:29:59.302Z,17.50
2023-10-29T12:32:27.833Z,17.60
2023-10-29T12:34:57.618Z,17.70
2023-10-29T12:37:31.867Z,17.70
2023-10-29T12:40:01.329Z,17.70
2023-10-29T12:42:55.682Z,17.90
2023-10-29T12:45:27.655Z,18.00
2023-10-29T12:48:11.216Z,18.20
2023-10-29T12:50:52.030Z,18.20
2023-10-29T12:53:23.318Z,18.10
2023-10-29T12:55:51.603Z,18.10
2023-10-29T12:58:19.426Z,18.10
2023-10-29T13:00:46.875Z,18.00
2023-10-29T13:03:14.637Z,18.00
2023-10-29T13:05:43.060Z,18.10
2023-10-29T13:08:12.777Z,18.10
2023-10-29T13:10:40.210Z,18.00
2023-10-29T13:13:07.924Z,17.90
2023-10-29T13:15:35.244Z,17.80
2023-10-29T13:18:02.811Z,17.60
2023-10-29T13:20:31.942Z,17.40
2023-10-29T13:22:59.627Z,17.30
2023-10-29T13:25:27.401Z,17.20
2023-10-29T13:27:54.923Z,17.10
2023-10-29T13:30:22.533Z,17.00
2023-10-29T13:32:50.306Z,17.00
2023-10-29T13:35:17.868Z,17.00
2023-10-29T13:37:45.547Z,17.00
2023-10-29T13:40:13.257Z,17.00
2023-10-29T13:42:40.723Z,17.10
2023-10-29T13:45:08.575Z,17.10
2023-10-29T13:47:36.314Z,17.20
2023-10-29T13:50:04.280Z,17.30
2023-10-29T13:52:31.597Z,17.30
2023-10-29T13:54:58.893Z,17.40
2023-10-29T13:57:26.206Z,17.40
2023-10-29T13:59:53.741Z,17.40
2023-10-29T14:02:21.502Z,17.40
2023-10-29T14:04:49.395Z,17.40
2023-10-29T14:07:16.932Z,17.40
2023-10-29T14:09:44.442Z,17.30
2023-10-29T14:12:12.186Z,17.20
2023-10-29T14:14:39.716Z,17.20
2023-10-29T14:17:08.231Z,17.10
2023-10-29T14:19:36.539Z,17.00
2023-10-29T14:22:04.257Z,17.00
2023-10-29T14:24:31.709Z,17.10
2023-10-29T14:27:00.156Z,17.10
2023-10-29T14:29:27.746Z,17.10
2023-10-29T14:31:55.257Z,17.20
2023-10-29T14:34:22.857Z,17.20
2023-10-29T14:36:50.774Z,17.30
2023-10-29T14:39:18.563Z,17.30
2023-10-29T14:41:46.000Z,17.30
2023-10-29T14:44:16.024Z,17.20
2023-10-29T14:46:43.607Z,17.20
2023-10-29T14:49:10.977Z,17.10
2023-10-29T14:51:40.620Z,17.10
2023-10-29T14:54:08.434Z,17.00
2023-10-29T14:56:36.049Z,16.90
2023-10-29T14:59:04.895Z,16.80
2023-10-29T15:01:32.952Z,16.70
2023-10-29T15:04:00.779Z,16.70
2023-10-29T15:06:28.348Z,16.60
2023-10-29T15:08:56.082Z,16.50
2023-10-29T15:11:36.223Z,16.50
2023-10-29T15:14:07.033Z,16.40
2023-10-29T15:16:34.917Z,16.30
2023-10-29T15:19:05.523Z,16.20
2023-10-29T15:21:34.551Z,16.10
2023-10-29T15:24:02.370Z,15.90
2023-10-29T15:26:29.676Z,15.90
2023-10-29T15:28:56.989Z,15.70
2023-10-29T15:31:24.357Z,15.60
2023-10-29T15:33:51.871Z,15.50
2023-10-29T15:36:19.440Z,15.40
2023-10-29T15:38:47.352Z,15.30
2023-10-29T15:41:16.845Z,15.20
2023-10-29T15:43:44.276Z,15.10
2023-10-29T15:46:11.754Z,15.00
2023-10-29T15:48:39.246Z,15.00
2023-10-29T15:51:09.422Z,14.90
2023-10-29T15:53:37.986Z,14.80
2023-10-29T15:56:07.191Z,14.70
2023-10-29T15:58:34.977Z,14.60
2023-10-29T16:01:02.938Z,14.60
2023-10-29T16:03:31.367Z,14.50
2023-10-29T16:06:08.089Z,14.40
2023-10-29T16:08:39.575Z,14.40
2023-10-29T16:11:20.359Z,14.30
2023-10-29T16:13:47.825Z,14.20
2023-10-29T16:16:15.578Z,14.10
2023-10-29T16:18:43.052Z,14.00
2023-10-29T16:21:12.271Z,14.00
2023-10-29T16:23:39.603Z,13.90
2023-10-29T16:26:07.006Z,13.90
2023-10-29T16:28:34.538Z,13.80
2023-10-29T16:31:01.989Z,13.80
2023-10-29T16:33:29.635Z,13.70
2023-10-29T16:35:57.972Z,13.60
2023-10-29T16:38:26.295Z,13.60
2023-10-29T16:40:56.911Z,13.60
2023-10-29T16:43:24.466Z,13.50
2023-10-29T16:45:51.808Z,13.50
2023-10-29T16:48:19.322Z,13.50
2023-10-29T16:51:02.005Z,13.40
2023-10-29T16:53:31.127Z,13.40
2023-10-29T16:56:06.553Z,13.40
2023-10-29T16:58:34.170Z,13.30
2023-10-29T17:01:02.235Z,13.30
2023-10-29T17:03:30.484Z,13.20
2023-10-29T17:05:58.186Z,13.10
2023-10-29T17:08:26.206Z,13.10
2023-10-29T17:10:58.408Z,13.00
2023-10-29T17:13:26.768Z,13.00
2023-10-29T17:15:59.316Z,13.00
2023-10-29T17:18:27.322Z,12.90
2023-10-29T17:21:01.097Z,12.90
2023-10-29T17:23:29.308Z,12.90
2023-10-29T17:25:57.688Z,12.90
2023-10-29T17:28:25.464Z,12.80
2023-10-29T17:30:53.210Z,12.80
2023-10-29T17:33:20.782Z,12.80
2023-10-29T17:35:48.696Z,12.70
2023-10-29T17:38:16.453Z,12.70
2023-10-29T17:40:44.096Z,12.70
2023-10-29T17:43:12.406Z,12.70
2023-10-29T17:45:39.807Z,12.70
2023-10-29T17:48:07.534Z,12.70
2023-10-29T17:50:35.063Z,12.70
2023-10-29T17:53:03.874Z,12.60
2023-10-29T17:55:31.733Z,12.60
2023-10-29T17:58:01.044Z,12.60
2023-10-29T18:00:29.713Z,12.50
2023-10-29T18:02:57.292Z,12.60
2023-10-29T18:05:25.165Z,12.50
2023-10-29T18:07:52.628Z,12.50
2023-10-29T18:10:19.984Z,12.40
2023-10-29T18:12:48.015Z,12.40
2023-10-29T18:15:15.768Z,12.40
2023-10-29T18:17:43.188Z,12.30
2023-10-29T18:20:11.620Z,12.30
2023-10-29T18:22:40.065Z,12.30
2023-10-29T18:25:07.809Z,12.20
2023-10-29T18:27:37.487Z,12.20
2023-10-29T18:30:07.609Z,12.20
2023-10-29T18:32:35.524Z,12.20
2023-10-29T18:35:03.448Z,12.20
2023-10-29T18:37:31.339Z,12.20
2023-10-29T18:39:58.859Z,12.10
2023-10-29T18:42:26.259Z,12.10
2023-10-29T18:44:53.951Z,12.10
2023-10-29T18:47:23.679Z,12.10
2023-10-29T18:49:51.254Z,12.10
2023-10-29T18:52:19.811Z,12.10
2023-10-29T18:54:47.588Z,12.10
2023-10-29T18:57:15.477Z,12.00
2023-10-29T18:59:42.850Z,12.10
2023-10-29T19:02:10.550Z,12.10
2023-10-29T19:04:38.961Z,12.00
2023-10-29T19:07:06.594Z,12.10
2023-10-29T19:09:34.167Z,12.10
2023-10-29T19:12:02.103Z,12.10
2023-10-29T19:14:32.827Z,12.10
2023-10-29T19:17:01.135Z,12.10
2023-10-29T19:19:28.631Z,12.10
2023-10-29T19:21:56.256Z,12.00
2023-10-29T19:24:24.684Z,12.00
2023-10-29T19:26:52.071Z,11.90
2023-10-29T19:29:19.450Z,11.90
2023-10-29T19:31:46.786Z,11.80
2023-10-29T19:34:14.179Z,11.80
2023-10-29T19:36:41.566Z,11.80
2023-10-29T19:39:09.318Z,11.80
2023-10-29T19:41:36.865Z,11.80
2023-10-29T19:44:04.400Z,11.80
2023-10-29T19:46:35.257Z,11.70
2023-10-29T19:49:03.476Z,11.70
2023-10-29T19:51:31.716Z,11.70
2023-10-29T19:54:01.062Z,11.60
2023-10-29T19:56:28.417Z,11.50
2023-10-29T19:58:57.280Z,11.50
2023-10-29T20:01:25.024Z,11.50
2023-10-29T20:03:52.621Z,11.40
2023-10-29T20:06:20.260Z,11.40
2023-10-29T20:08:48.797Z,11.40
2023-10-29T20:11:16.196Z,11.40
2023-10-29T20:13:46.146Z,11.40
2023-10-29T20:16:13.830Z,11.40
2023-10-29T20:18:42.032Z,11.40
2023-10-29T20:21:18.089Z,11.50
2023-10-29T20:23:48.420Z,11.50
2023-10-29T20:26:20.982Z,11.40
2023-10-29T20:28:50.465Z,11.40
2023-10-29T20:31:19.131Z,11.40
2023-10-29T20:33:47.096Z,11.30
2023-10-29T20:36:15.703Z,11.30
2023-10-29T20:38:43.855Z,11.30
2023-10-29T20:41:11.279Z,11.30
2023-10-29T20:43:39.406Z,11.30
2023-10-29T20:46:09.728Z,11.30
2023-10-29T20:48:37.751Z,11.30
2023-10-29T20:51:05.359Z,11.30
2023-10-29T20:53:33.602Z,11.20
2023-10-29T20:56:08.037Z,11.10
2023-10-29T20:58:35.646Z,11.10
2023-10-29T21:01:04.257Z,11.10
2023-10-29T21:03:31.831Z,11.00
2023-10-29T21:05:59.979Z,11.00
2023-10-29T21:08:28.004Z,11.00
2023-10-29T21:11:14.894Z,10.90
2023-10-29T21:13:43.153Z,10.80
2023-10-29T21:16:10.537Z,10.80
2023-10-29T21:18:38.377Z,10.80
2023-10-29T21:21:07.508Z,10.80
2023-10-29T21:23:35.131Z,10.80
2023-10-29T21:26:02.671Z,10.70
2023-10-29T21:28:30.596Z,10.70
2023-10-29T21:30:58.285Z,10.70
2023-10-29T21:33:25.814Z,10.70
2023-10-29T21:35:53.375Z,10.70
2023-10-29T21:38:21.051Z,10.60
2023-10-29T21:40:48.596Z,10.60
2023-10-29T21:43:16.032Z,10.50
2023-10-29T21:45:43.603Z,10.50
2023-10-29T21:48:11.513Z,10.50
2023-10-29T21:50:42.038Z,10.50
2023-10-29T21:53:10.718Z,10.50
2023-10-29T21:55:38.767Z,10.50
2023-10-29T21:58:09.864Z,10.50
2023-10-29T22:00:37.570Z,10.50
2023-10-29T22:03:07.000Z,10.50
2023-10-29T22:05:34.457Z,10.50
2023-10-29T22:08:02.949Z,10.40
2023-10-29T22:10:31.086Z,10.40
2023-10-29T22:12:58.545Z,10.30
2023-10-29T22:15:28.813Z,10.30
2023-10-29T22:17:57.141Z,10.30
2023-10-29T22:20:25.293Z,10.30
2023-10-29T22:22:52.716Z,10.30
2023-10-29T22:25:20.710Z,10.30
2023-10-29T22:27:48.092Z,10.30
2023-10-29T22:30:15.738Z,10.30
2023-10-29T22:32:43.224Z,10.30
2023-10-29T22:35:10.606Z,10.30
2023-10-29T22:37:38.034Z,10.30
2023-10-29T22:40:06.964Z,10.40
2023-10-29T22:42:34.349Z,10.40
2023-10-29T22:45:01.914Z,10.40
2023-10-29T22:47:29.476Z,10.40
2023-10-29T22:49:57.480Z,10.40
2023-10-29T22:52:24.797Z,10.40
2023-10-29T22:54:52.114Z,10.40
2023-10-29T22:57:19.694Z,10.40
2023-10-29T22:59:47.303Z,10.30
2023-10-29T23:02:15.169Z,10.30
2023-10-29T23:04:43.527Z,10.30
2023-10-29T23:07:10.933Z,10.30
2023-10-29T23:09:38.527Z,10.30
2023-10-29T23:12:06.390Z,10.30
2023-10-29T23:14:33.935Z,10.30
2023-10-29T23:17:01.655Z,10.30
2023-10-29T23:19:29.172Z,10.30
2023-10-29T23:21:56.688Z,10.40
2023-10-29T23:24:24.473Z,10.40
2023-10-29T23:26:52.010Z,10.40
2023-10-29T23:29:19.531Z,10.40
2023-10-29T23:31:47.343Z,10.40
2023-10-29T23:34:15.112Z,10.40
2023-10-29T23:36:42.497Z,10.40
2023-10-29T23:39:10.806Z,10.40
2023-10-29T23:41:38.215Z,10.40
2023-10-29T23:44:06.037Z,10.40
2023-10-29T23:46:33.595Z,10.30
2023-10-29T23:49:01.087Z,10.40
2023-10-29T23:51:28.646Z,10.40
2023-10-29T23:53:56.006Z,10.40
2023-10-29T23:56:23.991Z,10.40
2023-10-29T23:58:51.509Z,10.40
